createdAt,value
2018-08-18T00:00:43.972Z,821.77
2018-08-18T00:01:43.987Z,821.78
2018-08-18T00:02:44.005Z,821.78
2018-08-18T00:03:44.024Z,821.80
2018-08-18T00:04:44.041Z,821.78
2018-08-18T00:05:44.060Z,821.82
2018-08-18T00:06:44.076Z,821.80
2018-08-18T00:07:44.143Z,821.80
2018-08-18T00:08:44.116Z,821.79
2018-08-18T00:09:44.132Z,821.82
2018-08-18T00:10:44.146Z,821.78
2018-08-18T00:11:44.163Z,821.77
2018-08-18T00:12:44.182Z,821.77
2018-08-18T00:13:44.204Z,821.79
2018-08-18T00:14:44.215Z,821.79
2018-08-18T00:15:44.237Z,821.79
2018-08-18T00:16:44.252Z,821.76
2018-08-18T00:17:44.269Z,821.79
2018-08-18T00:18:44.291Z,821.81
2018-08-18T00:19:44.303Z,821.81
2018-08-18T00:20:44.322Z,821.82
2018-08-18T00:21:44.342Z,821.77
2018-08-18T00:22:44.359Z,821.77
2018-08-18T00:23:44.372Z,821.78
2018-08-18T00:24:44.391Z,821.77
2018-08-18T00:25:44.410Z,821.75
2018-08-18T00:26:44.425Z,821.77
2018-08-18T00:27:44.443Z,821.78
2018-08-18T00:28:44.461Z,821.79
2018-08-18T00:29:44.479Z,821.82
2018-08-18T00:30:44.495Z,821.82
2018-08-18T00:31:44.513Z,821.83
2018-08-18T00:32:44.535Z,821.82
2018-08-18T00:33:44.549Z,821.80
2018-08-18T00:34:44.565Z,821.78
2018-08-18T00:35:44.584Z,821.79
2018-08-18T00:36:44.600Z,821.78
2018-08-18T00:37:44.617Z,821.77
2018-08-18T00:38:44.634Z,821.76
2018-08-18T00:39:44.653Z,821.79
2018-08-18T00:40:44.669Z,821.76
2018-08-18T00:41:44.689Z,821.75
2018-08-18T00:42:44.706Z,821.78
2018-08-18T00:43:44.729Z,821.80
2018-08-18T00:44:44.744Z,821.77
2018-08-18T00:45:44.758Z,821.79
2018-08-18T00:46:44.777Z,821.78
2018-08-18T00:47:44.793Z,821.79
2018-08-18T00:48:44.811Z,821.76
2018-08-18T00:49:44.832Z,821.80
2018-08-18T00:50:44.846Z,821.76
2018-08-18T00:51:44.865Z,821.73
2018-08-18T00:52:44.880Z,821.79
2018-08-18T00:53:44.895Z,821.78
2018-08-18T00:54:44.913Z,821.77
2018-08-18T00:55:44.929Z,821.77
2018-08-18T00:56:44.948Z,821.73
2018-08-18T00:57:44.965Z,821.73
2018-08-18T00:58:44.982Z,821.71
2018-08-18T00:59:45.000Z,821.73
2018-08-18T01:00:45.015Z,821.70
2018-08-18T01:01:45.031Z,821.71
2018-08-18T01:02:45.050Z,821.72
2018-08-18T01:03:45.073Z,821.68
2018-08-18T01:04:45.084Z,821.68
2018-08-18T01:05:45.108Z,821.68
2018-08-18T01:06:45.122Z,821.68
2018-08-18T01:07:45.135Z,821.67
2018-08-18T01:08:45.155Z,821.66
2018-08-18T01:09:45.172Z,821.65
2018-08-18T01:10:45.248Z,821.65
2018-08-18T01:11:45.275Z,821.65
2018-08-18T01:12:45.403Z,821.63
2018-08-18T01:13:45.284Z,821.65
2018-08-18T01:14:45.317Z,821.59
2018-08-18T01:15:45.349Z,821.63
2018-08-18T01:16:45.291Z,821.61
2018-08-18T01:17:45.311Z,821.57
2018-08-18T01:18:45.327Z,821.58
2018-08-18T01:19:45.345Z,821.61
2018-08-18T01:20:45.362Z,821.63
2018-08-18T01:21:45.378Z,821.62
2018-08-18T01:22:45.395Z,821.63
2018-08-18T01:23:45.415Z,821.61
2018-08-18T01:24:45.429Z,821.62
2018-08-18T01:25:45.450Z,821.63
2018-08-18T01:26:45.466Z,821.63
2018-08-18T01:27:45.485Z,821.62
2018-08-18T01:28:45.501Z,821.64
2018-08-18T01:29:45.519Z,821.62
2018-08-18T01:30:45.534Z,821.66
2018-08-18T01:31:45.553Z,821.61
2018-08-18T01:32:45.571Z,821.63
2018-08-18T01:33:45.588Z,821.63
2018-08-18T01:34:45.607Z,821.64
2018-08-18T01:35:45.622Z,821.62
2018-08-18T01:36:45.639Z,821.60
2018-08-18T01:37:45.658Z,821.61
2018-08-18T01:38:45.675Z,821.61
2018-08-18T01:39:45.691Z,821.62
2018-08-18T01:40:45.708Z,821.62
2018-08-18T01:41:45.726Z,821.60
2018-08-18T01:42:45.743Z,821.62
2018-08-18T01:43:45.784Z,821.65
2018-08-18T01:44:45.781Z,821.62
2018-08-18T01:45:45.799Z,821.63
2018-08-18T01:46:45.814Z,821.61
2018-08-18T01:47:45.829Z,821.61
2018-08-18T01:48:45.849Z,821.63
2018-08-18T01:49:45.865Z,821.64
2018-08-18T01:50:45.883Z,821.62
2018-08-18T01:51:45.900Z,821.59
2018-08-18T01:52:45.918Z,821.61
2018-08-18T01:53:45.938Z,821.60
2018-08-18T01:54:45.951Z,821.60
2018-08-18T01:55:45.972Z,821.63
2018-08-18T01:56:45.988Z,821.62
2018-08-18T01:57:46.006Z,821.62
2018-08-18T01:58:46.023Z,821.64
2018-08-18T01:59:46.044Z,821.64
2018-08-18T02:00:46.058Z,821.67
2018-08-18T02:01:46.077Z,821.66
2018-08-18T02:02:46.130Z,821.64
2018-08-18T02:03:46.113Z,821.65
2018-08-18T02:04:46.129Z,821.61
2018-08-18T02:05:46.147Z,821.62
2018-08-18T02:06:46.162Z,821.58
2018-08-18T02:07:46.180Z,821.60
2018-08-18T02:08:46.198Z,821.57
2018-08-18T02:09:46.217Z,821.60
2018-08-18T02:10:46.231Z,821.61
2018-08-18T02:11:46.249Z,821.59
2018-08-18T02:12:46.266Z,821.62
2018-08-18T02:13:46.286Z,821.56
2018-08-18T02:14:46.301Z,821.60
2018-08-18T02:15:46.320Z,821.60
2018-08-18T02:16:46.337Z,821.62
2018-08-18T02:17:46.354Z,821.60
2018-08-18T02:18:46.369Z,821.63
2018-08-18T02:19:46.387Z,821.63
2018-08-18T02:20:46.405Z,821.60
2018-08-18T02:21:46.426Z,821.63
2018-08-18T02:22:46.439Z,821.60
2018-08-18T02:23:46.459Z,821.62
2018-08-18T02:24:46.474Z,821.60
2018-08-18T02:25:46.495Z,821.58
2018-08-18T02:26:46.507Z,821.54
2018-08-18T02:27:46.526Z,821.57
2018-08-18T02:28:46.544Z,821.54
2018-08-18T02:29:46.563Z,821.59
2018-08-18T02:30:46.582Z,821.56
2018-08-18T02:31:46.662Z,821.54
2018-08-18T02:32:46.622Z,821.54
2018-08-18T02:33:46.635Z,821.57
2018-08-18T02:34:46.649Z,821.53
2018-08-18T02:35:46.666Z,821.56
2018-08-18T02:36:46.688Z,821.53
2018-08-18T02:37:46.701Z,821.51
2018-08-18T02:38:46.718Z,821.52
2018-08-18T02:39:46.737Z,821.49
2018-08-18T02:40:46.758Z,821.47
2018-08-18T02:41:46.771Z,821.48
2018-08-18T02:42:46.787Z,821.47
2018-08-18T02:43:46.806Z,821.47
2018-08-18T02:44:46.822Z,821.45
2018-08-18T02:45:46.842Z,821.45
2018-08-18T02:46:46.856Z,821.45
2018-08-18T02:47:46.874Z,821.42
2018-08-18T02:48:46.894Z,821.45
2018-08-18T02:49:46.908Z,821.46
2018-08-18T02:50:46.926Z,821.43
2018-08-18T02:51:46.944Z,821.44
2018-08-18T02:52:46.965Z,821.37
2018-08-18T02:53:46.981Z,821.43
2018-08-18T02:54:46.994Z,821.43
2018-08-18T02:55:47.013Z,821.44
2018-08-18T02:56:47.028Z,821.42
2018-08-18T02:57:47.047Z,821.42
2018-08-18T02:58:47.064Z,821.39
2018-08-18T02:59:47.084Z,821.40
2018-08-18T03:00:47.102Z,821.41
2018-08-18T03:01:47.117Z,821.41
2018-08-18T03:02:47.136Z,821.37
2018-08-18T03:03:47.153Z,821.37
2018-08-18T03:04:47.170Z,821.41
2018-08-18T03:05:47.195Z,821.39
2018-08-18T03:06:47.204Z,821.39
2018-08-18T03:07:47.278Z,821.41
2018-08-18T03:08:47.239Z,821.43
2018-08-18T03:09:47.254Z,821.40
2018-08-18T03:10:47.273Z,821.39
2018-08-18T03:11:47.361Z,821.39
2018-08-18T03:12:47.309Z,821.40
2018-08-18T03:13:47.325Z,821.42
2018-08-18T03:14:47.339Z,821.40
2018-08-18T03:15:47.358Z,821.39
2018-08-18T03:16:47.375Z,821.39
2018-08-18T03:17:47.391Z,821.37
2018-08-18T03:18:47.410Z,821.38
2018-08-18T03:19:47.425Z,821.41
2018-08-18T03:20:47.443Z,821.41
2018-08-18T03:21:47.459Z,821.40
2018-08-18T03:22:47.479Z,821.37
2018-08-18T03:23:47.495Z,821.38
2018-08-18T03:24:47.512Z,821.37
2018-08-18T03:25:47.527Z,821.39
2018-08-18T03:26:47.546Z,821.36
2018-08-18T03:27:47.561Z,821.35
2018-08-18T03:28:47.579Z,821.34
2018-08-18T03:29:47.597Z,821.30
2018-08-18T03:30:47.613Z,821.31
2018-08-18T03:31:47.631Z,821.32
2018-08-18T03:32:47.648Z,821.31
2018-08-18T03:33:47.669Z,821.32
2018-08-18T03:34:47.683Z,821.31
2018-08-18T03:35:47.697Z,821.36
2018-08-18T03:36:47.716Z,821.34
2018-08-18T03:37:47.733Z,821.33
2018-08-18T03:38:47.753Z,821.32
2018-08-18T03:39:47.767Z,821.28
2018-08-18T03:40:47.785Z,821.33
2018-08-18T03:41:47.802Z,821.33
2018-08-18T03:42:47.817Z,821.34
2018-08-18T03:43:47.835Z,821.34
2018-08-18T03:44:47.852Z,821.37
2018-08-18T03:45:47.870Z,821.38
2018-08-18T03:46:47.888Z,821.38
2018-08-18T03:47:47.905Z,821.35
2018-08-18T03:48:47.922Z,821.38
2018-08-18T03:49:47.940Z,821.37
2018-08-18T03:50:47.964Z,821.37
2018-08-18T03:51:47.973Z,821.36
2018-08-18T03:52:47.991Z,821.36
2018-08-18T03:53:48.008Z,821.39
2018-08-18T03:54:48.023Z,821.39
2018-08-18T03:55:48.047Z,821.35
2018-08-18T03:56:48.070Z,821.36
2018-08-18T03:57:48.074Z,821.38
2018-08-18T03:58:48.092Z,821.39
2018-08-18T03:59:48.111Z,821.36
2018-08-18T04:00:48.125Z,821.38
2018-08-18T04:01:48.161Z,821.35
2018-08-18T04:02:48.157Z,821.37
2018-08-18T04:03:48.181Z,821.36
2018-08-18T04:04:48.196Z,821.39
2018-08-18T04:05:48.211Z,821.42
2018-08-18T04:06:48.229Z,821.38
2018-08-18T04:07:48.245Z,821.42
2018-08-18T04:08:48.265Z,821.41
2018-08-18T04:09:48.278Z,821.45
2018-08-18T04:10:48.297Z,821.46
2018-08-18T04:11:48.313Z,821.44
2018-08-18T04:12:48.333Z,821.48
2018-08-18T04:13:48.348Z,821.50
2018-08-18T04:14:48.365Z,821.49
2018-08-18T04:15:48.382Z,821.50
2018-08-18T04:16:48.399Z,821.53
2018-08-18T04:17:48.416Z,821.50
2018-08-18T04:18:48.518Z,821.53
2018-08-18T04:19:48.451Z,821.52
2018-08-18T04:20:48.465Z,821.52
2018-08-18T04:21:48.484Z,821.52
2018-08-18T04:22:48.502Z,821.52
2018-08-18T04:23:48.516Z,821.53
2018-08-18T04:24:48.532Z,821.47
2018-08-18T04:25:48.549Z,821.52
2018-08-18T04:26:48.567Z,821.49
2018-08-18T04:27:48.582Z,821.53
2018-08-18T04:28:48.599Z,821.49
2018-08-18T04:29:48.618Z,821.52
2018-08-18T04:30:48.634Z,821.53
2018-08-18T04:31:48.652Z,821.53
2018-08-18T04:32:48.669Z,821.56
2018-08-18T04:33:48.685Z,821.54
2018-08-18T04:34:48.702Z,821.56
2018-08-18T04:35:48.719Z,821.53
2018-08-18T04:36:48.736Z,821.55
2018-08-18T04:37:48.757Z,821.58
2018-08-18T04:38:48.768Z,821.56
2018-08-18T04:39:48.786Z,821.55
2018-08-18T04:40:48.803Z,821.55
2018-08-18T04:41:48.822Z,821.56
2018-08-18T04:42:48.834Z,821.56
2018-08-18T04:43:48.868Z,821.58
2018-08-18T04:44:48.871Z,821.56
2018-08-18T04:45:48.886Z,821.57
2018-08-18T04:46:48.904Z,821.55
2018-08-18T04:47:48.920Z,821.55
2018-08-18T04:48:48.940Z,821.54
2018-08-18T04:49:48.958Z,821.58
2018-08-18T04:50:48.972Z,821.60
2018-08-18T04:51:48.989Z,821.60
2018-08-18T04:52:49.005Z,821.58
2018-08-18T04:53:49.033Z,821.59
2018-08-18T04:54:49.040Z,821.59
2018-08-18T04:55:49.055Z,821.60
2018-08-18T04:56:49.140Z,821.58
2018-08-18T04:57:49.093Z,821.60
2018-08-18T04:58:49.110Z,821.56
2018-08-18T04:59:49.125Z,821.55
2018-08-18T05:00:49.141Z,821.57
2018-08-18T05:01:49.156Z,821.59
2018-08-18T05:02:49.173Z,821.60
2018-08-18T05:03:49.194Z,821.61
2018-08-18T05:04:49.210Z,821.63
2018-08-18T05:05:49.224Z,821.62
2018-08-18T05:06:49.244Z,821.61
2018-08-18T05:07:49.255Z,821.61
2018-08-18T05:08:49.316Z,821.62
2018-08-18T05:09:49.293Z,821.63
2018-08-18T05:10:49.309Z,821.64
2018-08-18T05:11:49.329Z,821.67
2018-08-18T05:12:49.345Z,821.63
2018-08-18T05:13:49.361Z,821.64
2018-08-18T05:14:49.375Z,821.61
2018-08-18T05:15:49.392Z,821.63
2018-08-18T05:16:49.412Z,821.61
2018-08-18T05:17:49.428Z,821.64
2018-08-18T05:18:49.452Z,821.64
2018-08-18T05:19:49.461Z,821.66
2018-08-18T05:20:49.477Z,821.66
2018-08-18T05:21:49.497Z,821.67
2018-08-18T05:22:49.511Z,821.69
2018-08-18T05:23:49.529Z,821.67
2018-08-18T05:24:49.554Z,821.67
2018-08-18T05:25:49.561Z,821.69
2018-08-18T05:26:49.586Z,821.68
2018-08-18T05:27:49.596Z,821.67
2018-08-18T05:28:49.612Z,821.65
2018-08-18T05:29:49.630Z,821.62
2018-08-18T05:30:49.647Z,821.66
2018-08-18T05:31:49.664Z,821.66
2018-08-18T05:32:49.680Z,821.65
2018-08-18T05:33:49.695Z,821.68
2018-08-18T05:34:49.715Z,821.64
2018-08-18T05:35:49.729Z,821.68
2018-08-18T05:36:49.747Z,821.64
2018-08-18T05:37:49.766Z,821.63
2018-08-18T05:38:49.780Z,821.63
2018-08-18T05:39:49.797Z,821.66
2018-08-18T05:40:49.815Z,821.63
2018-08-18T05:41:49.831Z,821.68
2018-08-18T05:42:49.846Z,821.68
2018-08-18T05:43:49.865Z,821.72
2018-08-18T05:44:49.882Z,821.70
2018-08-18T05:45:49.898Z,821.71
2018-08-18T05:46:49.915Z,821.69
2018-08-18T05:47:49.935Z,821.71
2018-08-18T05:48:49.953Z,821.72
2018-08-18T05:49:49.966Z,821.67
2018-08-18T05:50:49.982Z,821.67
2018-08-18T05:51:49.999Z,821.68
2018-08-18T05:52:50.020Z,821.68
2018-08-18T05:53:50.032Z,821.68
2018-08-18T05:54:50.049Z,821.70
2018-08-18T05:55:50.066Z,821.70
2018-08-18T05:56:50.086Z,821.72
2018-08-18T05:57:50.102Z,821.72
2018-08-18T05:58:50.119Z,821.71
2018-08-18T05:59:50.210Z,821.71
2018-08-18T06:00:50.157Z,821.70
2018-08-18T06:01:50.169Z,821.73
2018-08-18T06:02:50.189Z,821.69
2018-08-18T06:03:50.203Z,821.72
2018-08-18T06:04:50.222Z,821.76
2018-08-18T06:05:50.428Z,821.75
2018-08-18T06:06:50.254Z,821.73
2018-08-18T06:07:50.271Z,821.77
2018-08-18T06:08:50.286Z,821.76
2018-08-18T06:09:50.303Z,821.76
2018-08-18T06:10:50.320Z,821.77
2018-08-18T06:11:50.336Z,821.78
2018-08-18T06:12:50.455Z,821.77
2018-08-18T06:13:50.372Z,821.82
2018-08-18T06:14:50.392Z,821.82
2018-08-18T06:15:50.405Z,821.84
2018-08-18T06:16:50.424Z,821.85
2018-08-18T06:17:50.441Z,821.81
2018-08-18T06:18:50.457Z,821.82
2018-08-18T06:19:50.474Z,821.83
2018-08-18T06:20:50.492Z,821.82
2018-08-18T06:21:50.508Z,821.80
2018-08-18T06:22:50.525Z,821.77
2018-08-18T06:23:50.543Z,821.78
2018-08-18T06:24:50.560Z,821.80
2018-08-18T06:25:50.578Z,821.82
2018-08-18T06:26:50.591Z,821.79
2018-08-18T06:27:50.613Z,821.80
2018-08-18T06:28:50.628Z,821.79
2018-08-18T06:29:50.651Z,821.79
2018-08-18T06:30:50.659Z,821.80
2018-08-18T06:31:50.678Z,821.78
2018-08-18T06:32:50.694Z,821.77
2018-08-18T06:33:50.712Z,821.78
2018-08-18T06:34:50.885Z,821.79
2018-08-18T06:35:50.748Z,821.84
2018-08-18T06:36:50.793Z,821.84
2018-08-18T06:37:50.784Z,821.86
2018-08-18T06:38:50.799Z,821.85
2018-08-18T06:39:50.816Z,821.89
2018-08-18T06:40:50.883Z,821.88
2018-08-18T06:41:50.983Z,821.90
2018-08-18T06:42:50.953Z,821.87
2018-08-18T06:43:50.882Z,821.88
2018-08-18T06:44:50.951Z,821.88
2018-08-18T06:45:50.917Z,821.84
2018-08-18T06:46:50.938Z,821.87
2018-08-18T06:47:50.951Z,821.84
2018-08-18T06:48:50.973Z,821.83
2018-08-18T06:49:50.987Z,821.84
2018-08-18T06:50:51.007Z,821.87
2018-08-18T06:51:51.045Z,821.85
2018-08-18T06:52:51.036Z,821.89
2018-08-18T06:53:51.052Z,821.93
2018-08-18T06:54:51.114Z,821.90
2018-08-18T06:55:51.116Z,821.90
2018-08-18T06:56:51.123Z,821.88
2018-08-18T06:57:51.119Z,821.87
2018-08-18T06:58:51.137Z,821.91
2018-08-18T06:59:51.153Z,821.91
2018-08-18T07:00:51.170Z,821.92
2018-08-18T07:01:51.191Z,821.94
2018-08-18T07:02:51.204Z,821.96
2018-08-18T07:03:51.223Z,821.97
2018-08-18T07:04:51.237Z,821.94
2018-08-18T07:05:51.324Z,821.92
2018-08-18T07:06:51.271Z,821.96
2018-08-18T07:07:51.288Z,821.94
2018-08-18T07:08:51.305Z,821.96
2018-08-18T07:09:51.325Z,821.96
2018-08-18T07:10:51.340Z,821.93
2018-08-18T07:11:51.358Z,821.93
2018-08-18T07:12:51.372Z,821.96
2018-08-18T07:13:51.390Z,821.94
2018-08-18T07:14:51.406Z,821.94
2018-08-18T07:15:51.424Z,821.96
2018-08-18T07:16:51.441Z,821.93
2018-08-18T07:17:51.459Z,821.97
2018-08-18T07:18:51.475Z,821.98
2018-08-18T07:19:51.493Z,822.00
2018-08-18T07:20:51.509Z,822.00
2018-08-18T07:21:51.529Z,822.04
2018-08-18T07:22:51.544Z,822.04
2018-08-18T07:23:51.562Z,822.04
2018-08-18T07:24:51.578Z,822.04
2018-08-18T07:25:51.596Z,822.09
2018-08-18T07:26:51.610Z,822.05
2018-08-18T07:27:51.630Z,822.06
2018-08-18T07:28:51.799Z,822.08
2018-08-18T07:29:51.678Z,822.08
2018-08-18T07:30:51.722Z,822.06
2018-08-18T07:31:51.703Z,822.11
2018-08-18T07:32:51.714Z,822.07
2018-08-18T07:33:51.733Z,822.08
2018-08-18T07:34:51.748Z,822.07
2018-08-18T07:35:51.766Z,822.07
2018-08-18T07:36:51.783Z,822.06
2018-08-18T07:37:51.799Z,822.09
2018-08-18T07:38:51.815Z,822.08
2018-08-18T07:39:51.834Z,822.08
2018-08-18T07:40:51.853Z,822.07
2018-08-18T07:41:51.869Z,822.10
2018-08-18T07:42:51.886Z,822.06
2018-08-18T07:43:51.903Z,822.06
2018-08-18T07:44:51.919Z,822.04
2018-08-18T07:45:51.939Z,822.05
2018-08-18T07:46:51.954Z,822.09
2018-08-18T07:47:51.974Z,822.05
2018-08-18T07:48:51.990Z,822.04
2018-08-18T07:49:52.007Z,822.06
2018-08-18T07:50:52.026Z,822.08
2018-08-18T07:51:52.077Z,822.08
2018-08-18T07:52:52.110Z,822.12
2018-08-18T07:53:52.163Z,822.06
2018-08-18T07:54:52.154Z,822.09
2018-08-18T07:55:52.111Z,822.11
2018-08-18T07:56:52.160Z,822.09
2018-08-18T07:57:52.163Z,822.08
2018-08-18T07:58:52.181Z,822.08
2018-08-18T07:59:52.273Z,822.11
2018-08-18T08:00:52.196Z,822.07
2018-08-18T08:01:52.213Z,822.09
2018-08-18T08:02:52.233Z,822.11
2018-08-18T08:03:52.248Z,822.12
2018-08-18T08:04:52.270Z,822.12
2018-08-18T08:05:52.314Z,822.11
2018-08-18T08:06:52.299Z,822.15
2018-08-18T08:07:52.320Z,822.15
2018-08-18T08:08:52.334Z,822.18
2018-08-18T08:09:52.355Z,822.19
2018-08-18T08:10:52.371Z,822.19
2018-08-18T08:11:52.389Z,822.22
2018-08-18T08:12:52.474Z,822.24
2018-08-18T08:13:52.425Z,822.23
2018-08-18T08:14:52.445Z,822.22
2018-08-18T08:15:52.461Z,822.25
2018-08-18T08:16:52.477Z,822.21
2018-08-18T08:17:52.497Z,822.19
2018-08-18T08:18:52.513Z,822.18
2018-08-18T08:19:52.529Z,822.16
2018-08-18T08:20:52.547Z,822.17
2018-08-18T08:21:52.564Z,822.18
2018-08-18T08:22:52.587Z,822.23
2018-08-18T08:23:52.601Z,822.19
2018-08-18T08:24:52.618Z,822.20
2018-08-18T08:25:52.635Z,822.21
2018-08-18T08:26:52.652Z,822.21
2018-08-18T08:27:52.672Z,822.18
2018-08-18T08:28:52.689Z,822.23
2018-08-18T08:29:52.708Z,822.26
2018-08-18T08:30:52.726Z,822.23
2018-08-18T08:31:52.741Z,822.24
2018-08-18T08:32:52.761Z,822.26
2018-08-18T08:33:52.779Z,822.30
2018-08-18T08:34:52.796Z,822.26
2018-08-18T08:35:52.814Z,822.28
2018-08-18T08:36:52.899Z,822.32
2018-08-18T08:37:52.850Z,822.32
2018-08-18T08:38:52.867Z,822.32
2018-08-18T08:39:52.885Z,822.31
2018-08-18T08:40:52.906Z,822.34
2018-08-18T08:41:52.924Z,822.35
2018-08-18T08:42:53.016Z,822.36
2018-08-18T08:43:52.959Z,822.32
2018-08-18T08:44:52.978Z,822.32
2018-08-18T08:45:52.993Z,822.33
2018-08-18T08:46:53.015Z,822.30
2018-08-18T08:47:53.029Z,822.40
2018-08-18T08:48:53.048Z,822.36
2018-08-18T08:49:53.067Z,822.35
2018-08-18T08:50:53.085Z,822.33
2018-08-18T08:51:53.105Z,822.30
2018-08-18T08:52:53.124Z,822.37
2018-08-18T08:53:53.142Z,822.31
2018-08-18T08:54:53.160Z,822.38
2018-08-18T08:55:53.176Z,822.34
2018-08-18T08:56:53.197Z,822.31
2018-08-18T08:57:53.213Z,822.32
2018-08-18T08:58:53.314Z,822.32
2018-08-18T08:59:53.250Z,822.35
2018-08-18T09:00:53.268Z,822.33
2018-08-18T09:01:53.294Z,822.30
2018-08-18T09:02:53.305Z,822.32
2018-08-18T09:03:53.325Z,822.31
2018-08-18T09:04:53.349Z,822.27
2018-08-18T09:05:53.361Z,822.31
2018-08-18T09:06:53.379Z,822.28
2018-08-18T09:07:53.398Z,822.26
2018-08-18T09:08:53.417Z,822.27
2018-08-18T09:09:53.433Z,822.27
2018-08-18T09:10:53.452Z,822.29
2018-08-18T09:11:53.472Z,822.24
2018-08-18T09:12:53.490Z,822.26
2018-08-18T09:13:53.509Z,822.30
2018-08-18T09:14:53.528Z,822.28
2018-08-18T09:15:53.547Z,822.27
2018-08-18T09:16:53.565Z,822.31
2018-08-18T09:17:53.585Z,822.31
2018-08-18T09:18:53.601Z,822.31
2018-08-18T09:19:53.621Z,822.30
2018-08-18T09:20:53.640Z,822.30
2018-08-18T09:21:53.660Z,822.26
2018-08-18T09:22:53.678Z,822.31
2018-08-18T09:23:53.696Z,822.31
2018-08-18T09:24:53.719Z,822.34
2018-08-18T09:25:53.775Z,822.31
2018-08-18T09:26:53.755Z,822.31
2018-08-18T09:27:53.773Z,822.32
2018-08-18T09:28:53.794Z,822.31
2018-08-18T09:29:53.812Z,822.35
2018-08-18T09:30:53.828Z,822.29
2018-08-18T09:31:53.850Z,822.35
2018-08-18T09:32:53.870Z,822.29
2018-08-18T09:33:53.889Z,822.31
2018-08-18T09:34:53.908Z,822.34
2018-08-18T09:35:53.927Z,822.36
2018-08-18T09:36:53.949Z,822.31
2018-08-18T09:37:53.973Z,822.34
2018-08-18T09:38:53.984Z,822.38
2018-08-18T09:39:54.003Z,822.34
2018-08-18T09:40:54.027Z,822.36
2018-08-18T09:41:54.045Z,822.33
2018-08-18T09:42:54.062Z,822.33
2018-08-18T09:43:54.082Z,822.34
2018-08-18T09:44:54.107Z,822.29
2018-08-18T09:45:54.125Z,822.31
2018-08-18T09:46:54.143Z,822.31
2018-08-18T09:47:54.163Z,822.30
2018-08-18T09:48:54.181Z,822.35
2018-08-18T09:49:54.203Z,822.37
2018-08-18T09:50:54.221Z,822.33
2018-08-18T09:51:54.242Z,822.33
2018-08-18T09:52:54.262Z,822.29
2018-08-18T09:53:54.285Z,822.29
2018-08-18T09:54:54.302Z,822.41
2018-08-18T09:55:54.325Z,822.39
2018-08-18T09:56:54.343Z,822.33
2018-08-18T09:57:54.364Z,822.32
2018-08-18T09:58:54.383Z,822.40
2018-08-18T09:59:54.404Z,822.36
2018-08-18T10:00:54.424Z,822.34
2018-08-18T10:01:54.448Z,822.30
2018-08-18T10:02:54.464Z,822.39
2018-08-18T10:03:54.483Z,822.34
2018-08-18T10:04:54.504Z,822.34
2018-08-18T10:05:54.529Z,822.33
2018-08-18T10:06:54.542Z,822.33
2018-08-18T10:07:54.566Z,822.40
2018-08-18T10:08:54.584Z,822.40
2018-08-18T10:09:54.604Z,822.37
2018-08-18T10:10:54.625Z,822.41
2018-08-18T10:11:54.643Z,822.40
2018-08-18T10:12:54.664Z,822.40
2018-08-18T10:13:54.687Z,822.44
2018-08-18T10:14:54.708Z,822.38
2018-08-18T10:15:54.729Z,822.36
2018-08-18T10:16:54.747Z,822.40
2018-08-18T10:17:54.770Z,822.44
2018-08-18T10:18:54.785Z,822.42
2018-08-18T10:19:54.807Z,822.45
2018-08-18T10:20:54.828Z,822.43
2018-08-18T10:21:54.852Z,822.44
2018-08-18T10:22:54.869Z,822.47
2018-08-18T10:23:54.891Z,822.47
2018-08-18T10:24:54.910Z,822.47
2018-08-18T10:25:54.933Z,822.48
2018-08-18T10:26:54.952Z,822.50
2018-08-18T10:27:54.977Z,822.48
2018-08-18T10:28:54.995Z,822.49
2018-08-18T10:29:55.017Z,822.47
2018-08-18T10:30:55.038Z,822.42
2018-08-18T10:31:55.059Z,822.46
2018-08-18T10:32:55.084Z,822.47
2018-08-18T10:33:55.102Z,822.46
2018-08-18T10:34:55.127Z,822.43
2018-08-18T10:35:55.144Z,822.53
2018-08-18T10:36:55.164Z,822.46
2018-08-18T10:37:55.189Z,822.50
2018-08-18T10:38:55.208Z,822.49
2018-08-18T10:39:55.230Z,822.51
2018-08-18T10:40:55.256Z,822.50
2018-08-18T10:41:55.316Z,822.53
2018-08-18T10:42:55.296Z,822.54
2018-08-18T10:43:55.316Z,822.53
2018-08-18T10:44:55.338Z,822.50
2018-08-18T10:45:55.381Z,822.46
2018-08-18T10:46:55.383Z,822.48
2018-08-18T10:47:55.404Z,822.47
2018-08-18T10:48:55.426Z,822.50
2018-08-18T10:49:55.450Z,822.45
2018-08-18T10:50:55.468Z,822.48
2018-08-18T10:51:55.492Z,822.45
2018-08-18T10:52:55.514Z,822.47
2018-08-18T10:53:55.543Z,822.48
2018-08-18T10:54:55.560Z,822.46
2018-08-18T10:55:55.583Z,822.42
2018-08-18T10:56:55.602Z,822.48
2018-08-18T10:57:55.624Z,822.49
2018-08-18T10:58:55.645Z,822.47
2018-08-18T10:59:55.668Z,822.46
2018-08-18T11:00:55.691Z,822.51
2018-08-18T11:01:55.714Z,822.50
2018-08-18T11:02:55.739Z,822.46
2018-08-18T11:03:55.832Z,822.50
2018-08-18T11:04:55.780Z,822.51
2018-08-18T11:05:55.804Z,822.52
2018-08-18T11:06:55.824Z,822.48
2018-08-18T11:07:55.849Z,822.49
2018-08-18T11:08:55.870Z,822.53
2018-08-18T11:09:55.891Z,822.51
2018-08-18T11:10:55.912Z,822.53
2018-08-18T11:11:56.070Z,822.56
2018-08-18T11:12:55.959Z,822.55
2018-08-18T11:13:55.983Z,822.54
2018-08-18T11:14:56.004Z,822.57
2018-08-18T11:15:56.029Z,822.56
2018-08-18T11:16:56.049Z,822.54
2018-08-18T11:17:56.073Z,822.58
2018-08-18T11:18:56.095Z,822.57
2018-08-18T11:19:56.119Z,822.52
2018-08-18T11:20:56.143Z,822.58
2018-08-18T11:21:56.301Z,822.57
2018-08-18T11:22:56.185Z,822.55
2018-08-18T11:23:56.208Z,822.53
2018-08-18T11:24:56.233Z,822.51
2018-08-18T11:25:56.255Z,822.52
2018-08-18T11:26:56.282Z,822.52
2018-08-18T11:27:56.300Z,822.47
2018-08-18T11:28:56.386Z,822.50
2018-08-18T11:29:56.346Z,822.45
2018-08-18T11:30:56.371Z,822.54
2018-08-18T11:31:56.392Z,822.48
2018-08-18T11:32:56.416Z,822.47
2018-08-18T11:33:56.439Z,822.53
2018-08-18T11:34:56.461Z,822.53
2018-08-18T11:35:56.485Z,822.50
2018-08-18T11:36:56.506Z,822.52
2018-08-18T11:37:56.528Z,822.49
2018-08-18T11:38:56.557Z,822.52
2018-08-18T11:39:56.574Z,822.53
2018-08-18T11:40:56.598Z,822.51
2018-08-18T11:41:56.621Z,822.48
2018-08-18T11:42:56.642Z,822.53
2018-08-18T11:43:56.665Z,822.53
2018-08-18T11:44:56.689Z,822.51
2018-08-18T11:45:56.713Z,822.61
2018-08-18T11:46:56.762Z,822.53
2018-08-18T11:47:56.759Z,822.54
2018-08-18T11:48:56.782Z,822.53
2018-08-18T11:49:56.807Z,822.55
2018-08-18T11:50:56.839Z,822.54
2018-08-18T11:51:56.854Z,822.56
2018-08-18T11:52:56.876Z,822.53
2018-08-18T11:53:56.901Z,822.50
2018-08-18T11:54:56.924Z,822.51
2018-08-18T11:55:56.948Z,822.55
2018-08-18T11:56:56.972Z,822.47
2018-08-18T11:57:56.997Z,822.55
2018-08-18T11:58:57.018Z,822.54
2018-08-18T11:59:57.043Z,822.55
2018-08-18T12:00:57.095Z,822.50
2018-08-18T12:01:57.117Z,822.55
2018-08-18T12:02:57.121Z,822.56
2018-08-18T12:03:57.137Z,822.53
2018-08-18T12:04:57.161Z,822.55
2018-08-18T12:05:57.185Z,822.56
2018-08-18T12:06:57.206Z,822.53
2018-08-18T12:07:57.231Z,822.52
2018-08-18T12:08:57.253Z,822.49
2018-08-18T12:09:57.277Z,822.50
2018-08-18T12:10:57.411Z,822.53
2018-08-18T12:11:57.323Z,822.50
2018-08-18T12:12:57.347Z,822.53
2018-08-18T12:13:57.369Z,822.50
2018-08-18T12:14:57.393Z,822.47
2018-08-18T12:15:57.418Z,822.45
2018-08-18T12:16:57.438Z,822.47
2018-08-18T12:17:57.463Z,822.44
2018-08-18T12:18:57.484Z,822.51
2018-08-18T12:19:57.505Z,822.49
2018-08-18T12:20:57.530Z,822.50
2018-08-18T12:21:57.554Z,822.54
2018-08-18T12:22:57.577Z,822.48
2018-08-18T12:23:57.600Z,822.47
2018-08-18T12:24:57.620Z,822.53
2018-08-18T12:25:57.647Z,822.44
2018-08-18T12:26:57.669Z,822.43
2018-08-18T12:27:57.692Z,822.41
2018-08-18T12:28:57.713Z,822.44